sensor_id;sensor_type;location;lat;lon;timestamp;P1;durP1;ratioP1;P2;durP2;ratioP2
48813;SDS011;34634;44.108;3.074;2023-03-22T00:01:55;17.38;;;8.25;;
48813;SDS011;34634;44.108;3.074;2023-03-22T00:04:22;12.80;;;7.78;;
48813;SDS011;34634;44.108;3.074;2023-03-22T00:06:50;11.35;;;5.05;;
48813;SDS011;34634;44.108;3.074;2023-03-22T00:09:16;7.63;;;3.70;;
48813;SDS011;34634;44.108;3.074;2023-03-22T00:11:42;6.72;;;3.30;;
48813;SDS011;34634;44.108;3.074;2023-03-22T00:14:09;10.63;;;3.50;;
48813;SDS011;34634;44.108;3.074;2023-03-22T00:16:35;7.00;;;3.10;;
48813;SDS011;34634;44.108;3.074;2023-03-22T00:19:02;4.55;;;2.97;;
48813;SDS011;34634;44.108;3.074;2023-03-22T00:21:28;7.60;;;4.07;;
48813;SDS011;34634;44.108;3.074;2023-03-22T00:23:55;12.00;;;5.68;;
48813;SDS011;34634;44.108;3.074;2023-03-22T00:26:21;10.75;;;6.35;;
48813;SDS011;34634;44.108;3.074;2023-03-22T00:28:48;9.20;;;4.70;;
48813;SDS011;34634;44.108;3.074;2023-03-22T00:31:14;7.50;;;4.65;;
48813;SDS011;34634;44.108;3.074;2023-03-22T00:33:40;7.20;;;4.50;;
48813;SDS011;34634;44.108;3.074;2023-03-22T00:36:08;4.82;;;2.90;;
48813;SDS011;34634;44.108;3.074;2023-03-22T00:38:35;10.02;;;3.25;;
48813;SDS011;34634;44.108;3.074;2023-03-22T00:41:24;6.13;;;3.45;;
48813;SDS011;34634;44.108;3.074;2023-03-22T00:43:49;9.40;;;3.65;;
48813;SDS011;34634;44.108;3.074;2023-03-22T00:46:17;6.60;;;4.10;;
48813;SDS011;34634;44.108;3.074;2023-03-22T00:48:44;6.28;;;3.60;;
48813;SDS011;34634;44.108;3.074;2023-03-22T00:51:10;8.32;;;4.40;;
48813;SDS011;34634;44.108;3.074;2023-03-22T00:53:38;8.10;;;3.55;;
48813;SDS011;34634;44.108;3.074;2023-03-22T00:56:05;9.80;;;3.70;;
48813;SDS011;34634;44.108;3.074;2023-03-22T00:58:31;5.60;;;3.03;;
48813;SDS011;34634;44.108;3.074;2023-03-22T01:00:58;5.20;;;2.65;;
48813;SDS011;34634;44.108;3.074;2023-03-22T01:03:24;6.75;;;2.70;;
48813;SDS011;34634;44.108;3.074;2023-03-22T01:05:51;6.15;;;2.88;;
48813;SDS011;34634;44.108;3.074;2023-03-22T01:08:21;8.68;;;4.63;;
48813;SDS011;34634;44.108;3.074;2023-03-22T01:10:47;10.85;;;4.32;;
48813;SDS011;34634;44.108;3.074;2023-03-22T01:13:14;8.23;;;4.03;;
48813;SDS011;34634;44.108;3.074;2023-03-22T01:15:41;8.82;;;3.90;;
48813;SDS011;34634;44.108;3.074;2023-03-22T01:18:07;10.07;;;4.93;;
48813;SDS011;34634;44.108;3.074;2023-03-22T01:20:34;7.28;;;3.90;;
48813;SDS011;34634;44.108;3.074;2023-03-22T01:23:00;8.23;;;3.67;;
48813;SDS011;34634;44.108;3.074;2023-03-22T01:25:27;5.07;;;3.05;;
48813;SDS011;34634;44.108;3.074;2023-03-22T01:27:53;9.70;;;4.22;;
48813;SDS011;34634;44.108;3.074;2023-03-22T01:30:20;8.73;;;4.25;;
48813;SDS011;34634;44.108;3.074;2023-03-22T01:32:46;7.80;;;3.38;;
48813;SDS011;34634;44.108;3.074;2023-03-22T01:35:12;7.13;;;3.67;;
48813;SDS011;34634;44.108;3.074;2023-03-22T01:37:39;5.63;;;3.13;;
48813;SDS011;34634;44.108;3.074;2023-03-22T01:40:05;7.65;;;3.25;;
48813;SDS011;34634;44.108;3.074;2023-03-22T01:42:32;4.95;;;3.17;;
48813;SDS011;34634;44.108;3.074;2023-03-22T01:47:44;6.75;;;3.15;;
48813;SDS011;34634;44.108;3.074;2023-03-22T01:50:11;6.35;;;3.28;;
48813;SDS011;34634;44.108;3.074;2023-03-22T01:52:38;6.25;;;3.33;;
48813;SDS011;34634;44.108;3.074;2023-03-22T01:55:05;6.50;;;3.38;;
48813;SDS011;34634;44.108;3.074;2023-03-22T01:57:33;7.28;;;3.40;;
48813;SDS011;34634;44.108;3.074;2023-03-22T02:00:03;6.07;;;3.08;;
48813;SDS011;34634;44.108;3.074;2023-03-22T02:02:33;5.22;;;2.80;;
48813;SDS011;34634;44.108;3.074;2023-03-22T02:04:59;5.40;;;2.80;;
48813;SDS011;34634;44.108;3.074;2023-03-22T02:07:28;7.60;;;3.35;;
48813;SDS011;34634;44.108;3.074;2023-03-22T02:09:56;8.38;;;3.55;;
48813;SDS011;34634;44.108;3.074;2023-03-22T02:15:09;6.55;;;3.10;;
48813;SDS011;34634;44.108;3.074;2023-03-22T02:18:00;10.07;;;3.28;;
48813;SDS011;34634;44.108;3.074;2023-03-22T02:44:06;5.30;;;2.88;;
48813;SDS011;34634;44.108;3.074;2023-03-22T02:54:25;6.53;;;2.88;;
48813;SDS011;34634;44.108;3.074;2023-03-22T02:57:01;6.90;;;2.83;;
48813;SDS011;34634;44.108;3.074;2023-03-22T02:59:30;5.35;;;3.13;;
48813;SDS011;34634;44.108;3.074;2023-03-22T03:01:58;6.15;;;3.03;;
48813;SDS011;34634;44.108;3.074;2023-03-22T03:04:27;6.32;;;2.95;;
48813;SDS011;34634;44.108;3.074;2023-03-22T03:06:56;8.93;;;3.15;;
48813;SDS011;34634;44.108;3.074;2023-03-22T03:09:24;6.30;;;3.20;;
48813;SDS011;34634;44.108;3.074;2023-03-22T03:11:51;7.25;;;3.00;;
48813;SDS011;34634;44.108;3.074;2023-03-22T03:14:24;7.97;;;3.10;;
48813;SDS011;34634;44.108;3.074;2023-03-22T03:19:33;9.00;;;3.20;;
48813;SDS011;34634;44.108;3.074;2023-03-22T03:22:14;7.95;;;3.47;;
48813;SDS011;34634;44.108;3.074;2023-03-22T03:27:32;6.35;;;3.03;;
48813;SDS011;34634;44.108;3.074;2023-03-22T03:30:11;7.85;;;2.95;;
48813;SDS011;34634;44.108;3.074;2023-03-22T03:32:43;8.80;;;2.70;;
48813;SDS011;34634;44.108;3.074;2023-03-22T03:37:54;7.28;;;2.95;;
48813;SDS011;34634;44.108;3.074;2023-03-22T03:40:26;5.40;;;3.08;;
48813;SDS011;34634;44.108;3.074;2023-03-22T03:42:54;7.25;;;2.72;;
48813;SDS011;34634;44.108;3.074;2023-03-22T03:45:21;7.72;;;3.38;;
48813;SDS011;34634;44.108;3.074;2023-03-22T03:47:48;6.63;;;2.92;;
48813;SDS011;34634;44.108;3.074;2023-03-22T03:50:21;5.18;;;2.60;;
48813;SDS011;34634;44.108;3.074;2023-03-22T03:52:48;4.68;;;2.70;;
48813;SDS011;34634;44.108;3.074;2023-03-22T03:55:14;4.47;;;2.67;;
48813;SDS011;34634;44.108;3.074;2023-03-22T03:57:41;6.80;;;2.95;;
48813;SDS011;34634;44.108;3.074;2023-03-22T04:00:07;6.35;;;3.00;;
48813;SDS011;34634;44.108;3.074;2023-03-22T04:02:33;6.57;;;3.10;;
48813;SDS011;34634;44.108;3.074;2023-03-22T04:05:00;9.02;;;3.25;;
48813;SDS011;34634;44.108;3.074;2023-03-22T04:07:26;5.20;;;3.22;;
48813;SDS011;34634;44.108;3.074;2023-03-22T04:09:53;6.25;;;2.92;;
48813;SDS011;34634;44.108;3.074;2023-03-22T04:12:19;11.88;;;3.13;;
48813;SDS011;34634;44.108;3.074;2023-03-22T04:14:45;4.57;;;3.20;;
48813;SDS011;34634;44.108;3.074;2023-03-22T04:17:11;5.00;;;2.58;;
48813;SDS011;34634;44.108;3.074;2023-03-22T04:19:38;10.07;;;2.90;;
48813;SDS011;34634;44.108;3.074;2023-03-22T04:22:05;4.28;;;2.55;;
48813;SDS011;34634;44.108;3.074;2023-03-22T04:24:31;6.10;;;2.55;;
48813;SDS011;34634;44.108;3.074;2023-03-22T04:26:58;6.05;;;2.67;;
48813;SDS011;34634;44.108;3.074;2023-03-22T04:29:24;4.40;;;2.85;;
48813;SDS011;34634;44.108;3.074;2023-03-22T04:31:51;5.70;;;2.75;;
48813;SDS011;34634;44.108;3.074;2023-03-22T04:34:17;4.40;;;2.80;;
48813;SDS011;34634;44.108;3.074;2023-03-22T04:36:43;5.85;;;3.03;;
48813;SDS011;34634;44.108;3.074;2023-03-22T04:39:10;4.60;;;2.88;;
48813;SDS011;34634;44.108;3.074;2023-03-22T04:41:37;6.50;;;2.90;;
48813;SDS011;34634;44.108;3.074;2023-03-22T04:44:04;4.18;;;2.80;;
48813;SDS011;34634;44.108;3.074;2023-03-22T04:46:31;6.82;;;2.60;;
48813;SDS011;34634;44.108;3.074;2023-03-22T04:48:58;4.40;;;2.78;;
48813;SDS011;34634;44.108;3.074;2023-03-22T04:51:24;4.82;;;2.70;;
48813;SDS011;34634;44.108;3.074;2023-03-22T04:53:51;6.30;;;2.90;;
48813;SDS011;34634;44.108;3.074;2023-03-22T04:56:18;6.60;;;3.15;;
48813;SDS011;34634;44.108;3.074;2023-03-22T04:58:44;5.88;;;3.22;;
48813;SDS011;34634;44.108;3.074;2023-03-22T05:01:12;4.05;;;2.63;;
48813;SDS011;34634;44.108;3.074;2023-03-22T05:03:38;5.60;;;2.80;;
48813;SDS011;34634;44.108;3.074;2023-03-22T05:06:07;4.97;;;2.47;;
48813;SDS011;34634;44.108;3.074;2023-03-22T05:08:34;4.28;;;2.70;;
48813;SDS011;34634;44.108;3.074;2023-03-22T05:11:08;6.00;;;2.90;;
48813;SDS011;34634;44.108;3.074;2023-03-22T05:13:34;6.60;;;3.30;;
48813;SDS011;34634;44.108;3.074;2023-03-22T05:16:01;7.05;;;3.38;;
48813;SDS011;34634;44.108;3.074;2023-03-22T05:18:28;4.93;;;3.00;;
48813;SDS011;34634;44.108;3.074;2023-03-22T05:20:57;10.68;;;2.63;;
48813;SDS011;34634;44.108;3.074;2023-03-22T05:23:23;6.07;;;2.92;;
48813;SDS011;34634;44.108;3.074;2023-03-22T05:25:50;4.82;;;2.63;;
48813;SDS011;34634;44.108;3.074;2023-03-22T05:28:17;10.85;;;3.17;;
48813;SDS011;34634;44.108;3.074;2023-03-22T05:30:46;7.13;;;3.40;;
48813;SDS011;34634;44.108;3.074;2023-03-22T05:33:13;4.18;;;2.80;;
48813;SDS011;34634;44.108;3.074;2023-03-22T05:35:41;6.45;;;3.17;;
48813;SDS011;34634;44.108;3.074;2023-03-22T05:38:08;10.32;;;3.20;;
48813;SDS011;34634;44.108;3.074;2023-03-22T05:40:35;8.02;;;3.15;;
48813;SDS011;34634;44.108;3.074;2023-03-22T05:43:01;8.93;;;2.95;;
48813;SDS011;34634;44.108;3.074;2023-03-22T05:45:28;7.15;;;3.00;;
48813;SDS011;34634;44.108;3.074;2023-03-22T05:47:55;4.35;;;2.42;;
48813;SDS011;34634;44.108;3.074;2023-03-22T05:50:22;8.23;;;3.00;;
48813;SDS011;34634;44.108;3.074;2023-03-22T05:52:49;5.18;;;3.33;;
48813;SDS011;34634;44.108;3.074;2023-03-22T05:55:17;4.75;;;2.60;;
48813;SDS011;34634;44.108;3.074;2023-03-22T05:57:45;7.13;;;3.13;;
48813;SDS011;34634;44.108;3.074;2023-03-22T06:00:12;8.05;;;3.08;;
48813;SDS011;34634;44.108;3.074;2023-03-22T06:02:44;6.22;;;3.03;;
48813;SDS011;34634;44.108;3.074;2023-03-22T06:05:11;5.18;;;2.88;;
48813;SDS011;34634;44.108;3.074;2023-03-22T06:07:38;8.07;;;2.95;;
48813;SDS011;34634;44.108;3.074;2023-03-22T06:10:05;4.53;;;2.55;;
48813;SDS011;34634;44.108;3.074;2023-03-22T06:12:32;5.72;;;2.88;;
48813;SDS011;34634;44.108;3.074;2023-03-22T06:14:59;4.80;;;2.80;;
48813;SDS011;34634;44.108;3.074;2023-03-22T06:17:25;5.20;;;2.72;;
48813;SDS011;34634;44.108;3.074;2023-03-22T06:19:52;9.00;;;3.67;;
48813;SDS011;34634;44.108;3.074;2023-03-22T06:22:19;8.52;;;3.47;;
48813;SDS011;34634;44.108;3.074;2023-03-22T06:24:46;5.68;;;3.70;;
48813;SDS011;34634;44.108;3.074;2023-03-22T06:27:13;5.85;;;3.95;;
48813;SDS011;34634;44.108;3.074;2023-03-22T06:29:39;6.97;;;2.95;;
48813;SDS011;34634;44.108;3.074;2023-03-22T06:32:06;5.72;;;2.88;;
48813;SDS011;34634;44.108;3.074;2023-03-22T06:34:32;6.97;;;2.80;;
48813;SDS011;34634;44.108;3.074;2023-03-22T06:36:59;4.70;;;2.80;;
48813;SDS011;34634;44.108;3.074;2023-03-22T06:39:25;7.10;;;3.15;;
48813;SDS011;34634;44.108;3.074;2023-03-22T06:41:51;6.43;;;3.42;;
48813;SDS011;34634;44.108;3.074;2023-03-22T06:44:18;8.55;;;3.95;;
48813;SDS011;34634;44.108;3.074;2023-03-22T06:46:44;10.38;;;3.65;;
48813;SDS011;34634;44.108;3.074;2023-03-22T06:49:10;6.57;;;3.88;;
48813;SDS011;34634;44.108;3.074;2023-03-22T06:51:37;5.63;;;3.20;;
48813;SDS011;34634;44.108;3.074;2023-03-22T06:54:03;10.45;;;2.83;;
48813;SDS011;34634;44.108;3.074;2023-03-22T06:56:29;8.05;;;3.08;;
48813;SDS011;34634;44.108;3.074;2023-03-22T06:58:56;7.85;;;2.90;;
48813;SDS011;34634;44.108;3.074;2023-03-22T07:01:23;5.57;;;2.78;;
48813;SDS011;34634;44.108;3.074;2023-03-22T07:03:50;5.32;;;2.92;;
48813;SDS011;34634;44.108;3.074;2023-03-22T07:06:16;4.13;;;2.70;;
48813;SDS011;34634;44.108;3.074;2023-03-22T07:08:43;6.43;;;2.50;;
48813;SDS011;34634;44.108;3.074;2023-03-22T07:11:09;7.40;;;2.67;;
48813;SDS011;34634;44.108;3.074;2023-03-22T07:13:35;4.95;;;2.30;;
48813;SDS011;34634;44.108;3.074;2023-03-22T07:16:02;4.18;;;2.50;;
48813;SDS011;34634;44.108;3.074;2023-03-22T07:18:28;6.43;;;2.70;;
48813;SDS011;34634;44.108;3.074;2023-03-22T07:20:55;11.60;;;2.67;;
48813;SDS011;34634;44.108;3.074;2023-03-22T07:23:21;8.00;;;2.47;;
48813;SDS011;34634;44.108;3.074;2023-03-22T07:25:48;5.90;;;2.38;;
48813;SDS011;34634;44.108;3.074;2023-03-22T07:28:14;4.65;;;2.60;;
48813;SDS011;34634;44.108;3.074;2023-03-22T07:30:41;5.47;;;3.28;;
48813;SDS011;34634;44.108;3.074;2023-03-22T07:33:07;3.58;;;2.70;;
48813;SDS011;34634;44.108;3.074;2023-03-22T07:35:34;5.18;;;2.88;;
48813;SDS011;34634;44.108;3.074;2023-03-22T07:38:01;9.18;;;3.03;;
48813;SDS011;34634;44.108;3.074;2023-03-22T07:40:28;5.93;;;2.97;;
48813;SDS011;34634;44.108;3.074;2023-03-22T07:42:54;31.80;;;4.05;;
48813;SDS011;34634;44.108;3.074;2023-03-22T07:45:21;4.22;;;2.70;;
48813;SDS011;34634;44.108;3.074;2023-03-22T07:47:48;6.78;;;2.60;;
48813;SDS011;34634;44.108;3.074;2023-03-22T07:50:14;10.73;;;2.33;;
48813;SDS011;34634;44.108;3.074;2023-03-22T07:52:42;255.27;;;13.15;;
48813;SDS011;34634;44.108;3.074;2023-03-22T07:55:09;233.18;;;15.05;;
48813;SDS011;34634;44.108;3.074;2023-03-22T07:57:36;87.90;;;6.07;;
48813;SDS011;34634;44.108;3.074;2023-03-22T08:00:03;4.53;;;2.08;;
48813;SDS011;34634;44.108;3.074;2023-03-22T08:02:30;10.20;;;2.13;;
48813;SDS011;34634;44.108;3.074;2023-03-22T08:04:56;7.25;;;2.50;;
48813;SDS011;34634;44.108;3.074;2023-03-22T08:07:23;8.50;;;2.65;;
48813;SDS011;34634;44.108;3.074;2023-03-22T08:09:50;3.67;;;2.40;;
48813;SDS011;34634;44.108;3.074;2023-03-22T08:12:17;6.32;;;2.30;;
48813;SDS011;34634;44.108;3.074;2023-03-22T08:14:43;4.88;;;2.40;;
48813;SDS011;34634;44.108;3.074;2023-03-22T08:17:15;5.15;;;2.45;;
48813;SDS011;34634;44.108;3.074;2023-03-22T08:19:42;6.25;;;2.85;;
48813;SDS011;34634;44.108;3.074;2023-03-22T08:22:09;3.58;;;2.30;;
48813;SDS011;34634;44.108;3.074;2023-03-22T08:24:36;5.43;;;2.10;;
48813;SDS011;34634;44.108;3.074;2023-03-22T08:27:03;4.65;;;2.67;;
48813;SDS011;34634;44.108;3.074;2023-03-22T08:29:29;6.78;;;2.67;;
48813;SDS011;34634;44.108;3.074;2023-03-22T08:31:56;2.72;;;2.08;;
48813;SDS011;34634;44.108;3.074;2023-03-22T08:34:29;7.80;;;2.17;;
48813;SDS011;34634;44.108;3.074;2023-03-22T08:36:57;2.70;;;2.30;;
48813;SDS011;34634;44.108;3.074;2023-03-22T08:39:23;6.00;;;2.72;;
48813;SDS011;34634;44.108;3.074;2023-03-22T08:41:50;7.80;;;2.58;;
48813;SDS011;34634;44.108;3.074;2023-03-22T08:44:16;4.10;;;2.40;;
48813;SDS011;34634;44.108;3.074;2023-03-22T08:46:42;3.95;;;2.67;;
48813;SDS011;34634;44.108;3.074;2023-03-22T08:49:09;3.60;;;2.30;;
48813;SDS011;34634;44.108;3.074;2023-03-22T08:51:35;7.85;;;2.25;;
48813;SDS011;34634;44.108;3.074;2023-03-22T08:54:01;4.70;;;2.40;;
48813;SDS011;34634;44.108;3.074;2023-03-22T08:56:28;3.83;;;2.33;;
48813;SDS011;34634;44.108;3.074;2023-03-22T08:58:54;3.17;;;2.35;;
48813;SDS011;34634;44.108;3.074;2023-03-22T09:01:20;7.60;;;2.38;;
48813;SDS011;34634;44.108;3.074;2023-03-22T09:03:47;3.97;;;2.05;;
48813;SDS011;34634;44.108;3.074;2023-03-22T09:06:13;4.85;;;2.15;;
48813;SDS011;34634;44.108;3.074;2023-03-22T09:08:40;5.07;;;2.50;;
48813;SDS011;34634;44.108;3.074;2023-03-22T09:11:09;6.10;;;2.28;;
48813;SDS011;34634;44.108;3.074;2023-03-22T09:13:36;4.53;;;2.15;;
48813;SDS011;34634;44.108;3.074;2023-03-22T09:16:03;5.95;;;2.30;;
48813;SDS011;34634;44.108;3.074;2023-03-22T09:18:30;5.63;;;2.42;;
48813;SDS011;34634;44.108;3.074;2023-03-22T09:20:57;3.83;;;2.40;;
48813;SDS011;34634;44.108;3.074;2023-03-22T09:23:23;3.10;;;2.05;;
48813;SDS011;34634;44.108;3.074;2023-03-22T09:25:49;8.90;;;3.00;;
48813;SDS011;34634;44.108;3.074;2023-03-22T09:28:15;3.42;;;2.28;;
48813;SDS011;34634;44.108;3.074;2023-03-22T09:30:42;3.15;;;1.70;;
48813;SDS011;34634;44.108;3.074;2023-03-22T09:33:09;2.67;;;2.15;;
48813;SDS011;34634;44.108;3.074;2023-03-22T09:35:38;3.97;;;2.00;;
48813;SDS011;34634;44.108;3.074;2023-03-22T09:38:05;6.10;;;1.80;;
48813;SDS011;34634;44.108;3.074;2023-03-22T09:40:32;2.83;;;1.80;;
48813;SDS011;34634;44.108;3.074;2023-03-22T09:42:59;3.97;;;2.25;;
48813;SDS011;34634;44.108;3.074;2023-03-22T09:45:34;4.68;;;2.10;;
48813;SDS011;34634;44.108;3.074;2023-03-22T09:48:03;4.90;;;2.42;;
48813;SDS011;34634;44.108;3.074;2023-03-22T09:50:31;2.60;;;2.20;;
48813;SDS011;34634;44.108;3.074;2023-03-22T09:52:58;2.97;;;2.00;;
48813;SDS011;34634;44.108;3.074;2023-03-22T10:00:37;4.10;;;2.55;;
48813;SDS011;34634;44.108;3.074;2023-03-22T10:03:08;4.40;;;2.15;;
48813;SDS011;34634;44.108;3.074;2023-03-22T10:05:42;5.68;;;2.35;;
48813;SDS011;34634;44.108;3.074;2023-03-22T10:10:38;5.63;;;2.20;;
48813;SDS011;34634;44.108;3.074;2023-03-22T10:15:47;5.05;;;2.35;;
48813;SDS011;34634;44.108;3.074;2023-03-22T10:18:18;5.93;;;2.67;;
48813;SDS011;34634;44.108;3.074;2023-03-22T10:20:47;9.40;;;2.85;;
48813;SDS011;34634;44.108;3.074;2023-03-22T10:23:15;5.50;;;2.47;;
48813;SDS011;34634;44.108;3.074;2023-03-22T10:25:43;6.10;;;2.60;;
48813;SDS011;34634;44.108;3.074;2023-03-22T10:28:14;4.55;;;2.47;;
48813;SDS011;34634;44.108;3.074;2023-03-22T10:30:41;6.05;;;2.50;;
48813;SDS011;34634;44.108;3.074;2023-03-22T10:33:13;7.30;;;2.67;;
48813;SDS011;34634;44.108;3.074;2023-03-22T10:35:39;7.75;;;2.70;;
48813;SDS011;34634;44.108;3.074;2023-03-22T10:38:07;4.30;;;2.30;;
48813;SDS011;34634;44.108;3.074;2023-03-22T10:40:34;6.85;;;2.83;;
48813;SDS011;34634;44.108;3.074;2023-03-22T10:43:03;3.13;;;2.45;;
48813;SDS011;34634;44.108;3.074;2023-03-22T10:45:30;4.10;;;2.28;;
48813;SDS011;34634;44.108;3.074;2023-03-22T10:48:02;4.88;;;2.40;;
48813;SDS011;34634;44.108;3.074;2023-03-22T10:50:37;5.18;;;2.20;;
48813;SDS011;34634;44.108;3.074;2023-03-22T10:55:39;3.33;;;2.15;;
48813;SDS011;34634;44.108;3.074;2023-03-22T10:58:13;4.70;;;2.50;;
48813;SDS011;34634;44.108;3.074;2023-03-22T11:00:45;10.00;;;2.78;;
48813;SDS011;34634;44.108;3.074;2023-03-22T11:05:58;3.65;;;2.25;;
48813;SDS011;34634;44.108;3.074;2023-03-22T11:08:25;4.05;;;2.60;;
48813;SDS011;34634;44.108;3.074;2023-03-22T11:10:51;5.80;;;2.60;;
48813;SDS011;34634;44.108;3.074;2023-03-22T11:13:23;4.47;;;2.40;;
48813;SDS011;34634;44.108;3.074;2023-03-22T11:15:51;5.60;;;2.70;;
48813;SDS011;34634;44.108;3.074;2023-03-22T11:18:18;3.72;;;2.40;;
48813;SDS011;34634;44.108;3.074;2023-03-22T11:20:55;7.07;;;2.40;;
48813;SDS011;34634;44.108;3.074;2023-03-22T11:23:22;3.65;;;2.15;;
48813;SDS011;34634;44.108;3.074;2023-03-22T11:25:49;3.97;;;2.50;;
48813;SDS011;34634;44.108;3.074;2023-03-22T11:31:13;4.43;;;2.60;;
48813;SDS011;34634;44.108;3.074;2023-03-22T11:36:18;4.95;;;1.70;;
48813;SDS011;34634;44.108;3.074;2023-03-22T11:38:44;6.30;;;2.22;;
48813;SDS011;34634;44.108;3.074;2023-03-22T11:41:34;2.83;;;1.73;;
48813;SDS011;34634;44.108;3.074;2023-03-22T11:44:00;2.80;;;1.98;;
48813;SDS011;34634;44.108;3.074;2023-03-22T11:46:27;1.75;;;1.30;;
48813;SDS011;34634;44.108;3.074;2023-03-22T11:48:57;4.03;;;1.10;;
48813;SDS011;34634;44.108;3.074;2023-03-22T11:51:31;3.83;;;1.20;;
48813;SDS011;34634;44.108;3.074;2023-03-22T11:54:06;2.22;;;1.50;;
48813;SDS011;34634;44.108;3.074;2023-03-22T11:56:33;1.20;;;1.10;;
48813;SDS011;34634;44.108;3.074;2023-03-22T11:59:22;3.65;;;1.30;;
48813;SDS011;34634;44.108;3.074;2023-03-22T12:01:50;1.13;;;0.93;;
48813;SDS011;34634;44.108;3.074;2023-03-22T12:04:18;1.60;;;1.10;;
48813;SDS011;34634;44.108;3.074;2023-03-22T12:06:46;2.20;;;1.60;;
48813;SDS011;34634;44.108;3.074;2023-03-22T12:09:34;2.10;;;1.90;;
48813;SDS011;34634;44.108;3.074;2023-03-22T12:12:03;3.15;;;1.80;;
48813;SDS011;34634;44.108;3.074;2023-03-22T12:14:38;1.98;;;1.77;;
48813;SDS011;34634;44.108;3.074;2023-03-22T12:22:17;1.83;;;1.63;;
48813;SDS011;34634;44.108;3.074;2023-03-22T12:24:43;2.17;;;1.30;;
48813;SDS011;34634;44.108;3.074;2023-03-22T12:27:14;1.27;;;1.17;;
48813;SDS011;34634;44.108;3.074;2023-03-22T12:29:44;2.22;;;1.50;;
48813;SDS011;34634;44.108;3.074;2023-03-22T12:32:14;1.63;;;1.35;;
48813;SDS011;34634;44.108;3.074;2023-03-22T12:34:46;1.65;;;1.33;;
48813;SDS011;34634;44.108;3.074;2023-03-22T12:37:14;2.40;;;1.30;;
48813;SDS011;34634;44.108;3.074;2023-03-22T12:39:47;5.28;;;1.73;;
48813;SDS011;34634;44.108;3.074;2023-03-22T12:42:30;3.47;;;1.30;;
48813;SDS011;34634;44.108;3.074;2023-03-22T12:45:03;2.08;;;1.58;;
48813;SDS011;34634;44.108;3.074;2023-03-22T12:47:40;4.38;;;3.33;;
48813;SDS011;34634;44.108;3.074;2023-03-22T12:50:12;3.17;;;2.47;;
48813;SDS011;34634;44.108;3.074;2023-03-22T12:52:44;1.42;;;1.08;;
48813;SDS011;34634;44.108;3.074;2023-03-22T12:55:17;1.05;;;1.00;;
48813;SDS011;34634;44.108;3.074;2023-03-22T12:57:45;1.20;;;1.10;;
48813;SDS011;34634;44.108;3.074;2023-03-22T13:02:46;1.35;;;1.25;;
48813;SDS011;34634;44.108;3.074;2023-03-22T13:05:15;1.42;;;1.00;;
48813;SDS011;34634;44.108;3.074;2023-03-22T13:15:36;1.20;;;1.10;;
48813;SDS011;34634;44.108;3.074;2023-03-22T13:18:03;1.35;;;1.20;;
48813;SDS011;34634;44.108;3.074;2023-03-22T13:20:32;4.65;;;1.20;;
48813;SDS011;34634;44.108;3.074;2023-03-22T13:23:01;4.47;;;1.20;;
48813;SDS011;34634;44.108;3.074;2023-03-22T13:25:29;1.80;;;1.20;;
48813;SDS011;34634;44.108;3.074;2023-03-22T13:28:03;1.08;;;0.98;;
48813;SDS011;34634;44.108;3.074;2023-03-22T13:30:48;1.13;;;1.02;;
48813;SDS011;34634;44.108;3.074;2023-03-22T13:38:19;1.17;;;0.90;;
48813;SDS011;34634;44.108;3.074;2023-03-22T13:40:59;0.90;;;0.90;;
48813;SDS011;34634;44.108;3.074;2023-03-22T13:43:45;1.27;;;0.90;;
48813;SDS011;34634;44.108;3.074;2023-03-22T13:59:22;1.85;;;1.10;;
48813;SDS011;34634;44.108;3.074;2023-03-22T14:04:37;1.60;;;1.42;;
48813;SDS011;34634;44.108;3.074;2023-03-22T14:09:54;3.10;;;1.50;;
48813;SDS011;34634;44.108;3.074;2023-03-22T14:12:23;1.23;;;1.00;;
48813;SDS011;34634;44.108;3.074;2023-03-22T14:14:57;0.90;;;0.90;;
48813;SDS011;34634;44.108;3.074;2023-03-22T14:17:38;1.40;;;0.93;;
48813;SDS011;34634;44.108;3.074;2023-03-22T14:20:06;2.00;;;1.40;;
48813;SDS011;34634;44.108;3.074;2023-03-22T14:22:36;1.92;;;1.00;;
48813;SDS011;34634;44.108;3.074;2023-03-22T14:25:05;5.88;;;2.35;;
48813;SDS011;34634;44.108;3.074;2023-03-22T14:27:35;1.98;;;1.27;;
48813;SDS011;34634;44.108;3.074;2023-03-22T14:30:02;1.85;;;1.30;;
48813;SDS011;34634;44.108;3.074;2023-03-22T14:32:28;1.10;;;1.00;;
48813;SDS011;34634;44.108;3.074;2023-03-22T14:34:57;1.27;;;1.10;;
48813;SDS011;34634;44.108;3.074;2023-03-22T14:37:25;4.55;;;0.80;;
48813;SDS011;34634;44.108;3.074;2023-03-22T14:39:51;1.13;;;0.80;;
48813;SDS011;34634;44.108;3.074;2023-03-22T14:44:48;4.20;;;2.50;;
48813;SDS011;34634;44.108;3.074;2023-03-22T14:49:44;2.95;;;2.00;;
48813;SDS011;34634;44.108;3.074;2023-03-22T14:52:29;4.00;;;1.25;;
48813;SDS011;34634;44.108;3.074;2023-03-22T14:54:58;1.23;;;0.93;;
48813;SDS011;34634;44.108;3.074;2023-03-22T14:57:28;1.10;;;1.00;;
48813;SDS011;34634;44.108;3.074;2023-03-22T14:59:55;1.02;;;0.93;;
48813;SDS011;34634;44.108;3.074;2023-03-22T15:04:49;0.95;;;0.90;;
48813;SDS011;34634;44.108;3.074;2023-03-22T15:07:17;1.77;;;1.08;;
48813;SDS011;34634;44.108;3.074;2023-03-22T15:09:44;1.17;;;0.95;;
48813;SDS011;34634;44.108;3.074;2023-03-22T15:12:10;1.60;;;1.10;;
48813;SDS011;34634;44.108;3.074;2023-03-22T15:14:37;3.60;;;1.10;;
48813;SDS011;34634;44.108;3.074;2023-03-22T15:17:04;2.35;;;1.30;;
48813;SDS011;34634;44.108;3.074;2023-03-22T15:19:36;1.23;;;1.10;;
48813;SDS011;34634;44.108;3.074;2023-03-22T15:22:11;2.33;;;1.50;;
48813;SDS011;34634;44.108;3.074;2023-03-22T15:24:38;2.35;;;1.48;;
48813;SDS011;34634;44.108;3.074;2023-03-22T15:27:10;1.27;;;1.10;;
48813;SDS011;34634;44.108;3.074;2023-03-22T15:29:39;1.95;;;1.45;;
48813;SDS011;34634;44.108;3.074;2023-03-22T15:32:11;1.58;;;1.30;;
48813;SDS011;34634;44.108;3.074;2023-03-22T15:34:38;5.82;;;1.33;;
48813;SDS011;34634;44.108;3.074;2023-03-22T15:37:04;2.00;;;1.40;;
48813;SDS011;34634;44.108;3.074;2023-03-22T15:39:38;2.65;;;1.42;;
48813;SDS011;34634;44.108;3.074;2023-03-22T15:44:58;1.90;;;1.38;;
48813;SDS011;34634;44.108;3.074;2023-03-22T15:47:24;2.00;;;1.55;;
48813;SDS011;34634;44.108;3.074;2023-03-22T15:49:57;3.13;;;1.30;;
48813;SDS011;34634;44.108;3.074;2023-03-22T15:52:30;2.00;;;1.70;;
48813;SDS011;34634;44.108;3.074;2023-03-22T15:55:00;2.65;;;1.67;;
48813;SDS011;34634;44.108;3.074;2023-03-22T16:00:17;3.53;;;2.10;;
48813;SDS011;34634;44.108;3.074;2023-03-22T16:05:41;4.40;;;1.65;;
48813;SDS011;34634;44.108;3.074;2023-03-22T16:08:09;1.70;;;1.30;;
48813;SDS011;34634;44.108;3.074;2023-03-22T16:10:37;3.03;;;1.70;;
48813;SDS011;34634;44.108;3.074;2023-03-22T16:13:20;2.38;;;1.38;;
48813;SDS011;34634;44.108;3.074;2023-03-22T16:15:46;3.58;;;1.50;;
48813;SDS011;34634;44.108;3.074;2023-03-22T16:18:17;4.35;;;1.30;;
48813;SDS011;34634;44.108;3.074;2023-03-22T16:20:43;2.58;;;1.70;;
48813;SDS011;34634;44.108;3.074;2023-03-22T16:23:11;4.13;;;1.83;;
48813;SDS011;34634;44.108;3.074;2023-03-22T16:25:38;2.45;;;1.50;;
48813;SDS011;34634;44.108;3.074;2023-03-22T16:28:05;4.65;;;1.60;;
48813;SDS011;34634;44.108;3.074;2023-03-22T16:30:31;6.28;;;1.60;;
48813;SDS011;34634;44.108;3.074;2023-03-22T16:33:00;2.75;;;1.52;;
48813;SDS011;34634;44.108;3.074;2023-03-22T16:35:26;2.90;;;1.55;;
48813;SDS011;34634;44.108;3.074;2023-03-22T16:37:53;6.13;;;2.33;;
48813;SDS011;34634;44.108;3.074;2023-03-22T16:40:21;3.20;;;2.03;;
48813;SDS011;34634;44.108;3.074;2023-03-22T16:42:50;3.95;;;1.85;;
48813;SDS011;34634;44.108;3.074;2023-03-22T16:45:24;2.63;;;1.60;;
48813;SDS011;34634;44.108;3.074;2023-03-22T16:47:51;2.85;;;1.60;;
48813;SDS011;34634;44.108;3.074;2023-03-22T16:50:18;2.08;;;1.50;;
48813;SDS011;34634;44.108;3.074;2023-03-22T16:52:44;2.67;;;1.58;;
48813;SDS011;34634;44.108;3.074;2023-03-22T16:55:15;2.40;;;1.70;;